Butlerville, Indiana
Current Conditions -  °F | °C
As of 9:45 PM on Tuesday 21 Oct 2014 (Local Time) from KBAK Reporting Station
Clear Clear  
Wind Chill: 42°   Ceiling: Unl
Heat Index: 45°   Visibility: 10mi
Dew Point: 41°   Wind: 5mph
Humidity: 87%   Direction: 10°N
Pressure: 30.17"   Gusts: NA
Location:  39.03°N, 85.51°W
Report Text: KBAK 220145Z 01004KT 10SM SKC 07/05 A3017
Loading
Personal Weather Stations






























Interactive Weather Map
Tropical Storm Tracking
New forecast layout! Learn more

10-Day Weather Forecast

Advertisements
Track Severe Weather on mobile